Shoya Mitoma

Chief Scout - Albirex Niigata
20 Feb 2028
Sunday
Process

Personality

Adaptability (8) Ambition (20) Controversy (13) Loyalty (3) Pressure (9) Professionalism (17) Sportsmanship (4) Temperament (2)

Profile

Coaching Style Democratic
License National A
Determination 8
Man Management 5
Motivating 5
Discipline 6
Job Satisfaction
100%
Fatigue
0%
Role Chief Scout
Wage 46.9K p/w
Contract 14.03.2028

Performance

Behaviour Good
Training Effectiveness
40%
Player Development
55%
Injury Prevention
50%
Tactical Implementation
30%

Recent Events

Recommended a transfer target now
Recommended a transfer target now
Recommended a transfer target now
Attended a recruitment meeting now
Contract negotiation started now
Assessed a player now
Contract negotiation started now
Contract negotiation started now

Currently Monitoring

203
Player Club Status Ability Confidence Watched Last Observed Latest Vote
Khalis Merah Toulouse FC Negotiating 120 / 146 40% 2 15.02.2028 -
Dmitry Pestryakov Dinamo Moscow Active 124 / 117 40% 1 15.02.2028 -
Kauã Moraes Cruzeiro Active 122 / 125 40% 1 07.02.2028 -
Pape Diong Westerlo Negotiating 121 / 120 40% 1 07.02.2028 -
Agustín Obregón River Plate Active 118 / 122 40% 1 24.01.2028 -
David Valencia Alianza Petrolera Negotiating 120 / 133 40% 4 05.01.2028 -
Taher Mohamed Real Salt Lake Negotiating 119 / 119 67% 1 05.01.2028 Approve
Lucas Camejo River Plate Active 93 / 86 40% 1 05.01.2028 -
Edwar López Deportes Tolima Active 111 / 108 40% 1 04.01.2028 -
Luca Martínez Dupuy Godoy Cruz Active 131 / 125 40% 1 04.01.2028 -
Lévy Néne FC Nordsjaelland Active 102 / 128 40% 1 03.01.2028 -
Rodrigo Fernández Alvarado Active 82 / 87 40% 1 03.01.2028 -
Bop Guèye Haugesund Active 125 / 121 40% 3 02.01.2028 -
Jake Evans Colchester United Active 114 / 132 40% 3 02.01.2028 -
Tyrique George Everton Active 122 / 125 40% 1 02.01.2028 -
Joél Drakes-Thomas Stockport County Active 100 / 109 40% 1 02.01.2028 -
Soriba Diaoune AC Ajaccio Active 124 / 128 40% 2 31.12.2027 -
Lorenzo Venturino Genoa Active 136 / 141 40% 1 31.12.2027 -
Chimobi Igwilo Rangers International Active 99 / 81 40% 2 30.12.2027 -
Artur Kozyrev Volna Active 75 / 77 40% 1 30.12.2027 -
Mikhail Alexandrov Dinamo Brest Active 105 / 98 40% 3 29.12.2027 -
Tiziano Perrotta Mirandés Active 101 / 118 40% 2 29.12.2027 -
Dylan Cabral Arsenal Active 94 / 108 40% 4 28.12.2027 -
Zak Lovelace Crewe Alexandra Active 122 / 115 40% 1 28.12.2027 -
Igor Tyjon Doncaster Rovers Active 97 / 134 40% 4 24.12.2027 -
Élohim Kaboré Hammarby Active 103 / 126 40% 2 24.12.2027 -
Jayden Danns Wigan Athletic Active 125 / 137 40% 3 22.12.2027 -
Yojan Garcés America de Cali Active 121 / 127 40% 4 21.12.2027 -
Felipe Karabulut Gimnasia y Tiro Active 91 / 100 40% 3 20.12.2027 -
Luca Williams-Barnett Tranmere Rovers Active 130 / 127 40% 3 19.12.2027 -
Ousseynou Seck FC Midtjylland Active 106 / 120 40% 2 19.12.2027 -
Maren Kefas Plateau United Active 85 / 96 40% 2 18.12.2027 -
Ryan Kavuma-McQueen Accrington Stanley Active 127 / 119 40% 1 18.12.2027 -
Octávio Silva Artigas Active 77 / 88 40% 2 13.12.2027 -
Ramiro Jara Racing Active 76 / 97 40% 1 12.12.2027 -
Diego Opazo Santiago Wanderers Active 94 / 86 40% 1 10.12.2027 -
Nahuel Olmedo Real Cartagena Active 92 / 98 40% 1 09.12.2027 -
Edqui Amaro Boa Active 82 / 80 40% 1 08.12.2027 -
Anton Höög IFK Norrkoping Active 80 / 119 40% 3 07.12.2027 -
Baylee Dipepa Norwich City Active 96 / 127 40% 2 07.12.2027 -
Luca Fletcher Ipswich Town Active 111 / 104 40% 1 06.12.2027 -
Andrés Calderón Deportivo Pereira Active 75 / 82 40% 1 06.12.2027 -
Nika Kvaratskhelia Tskhinvali Active 84 / 90 40% 1 06.12.2027 -
Esquerdinha Shrewsbury Town Active 125 / 124 40% 1 06.12.2027 -
Mikkel Hope Haugesund Active 93 / 100 40% 1 04.12.2027 -
Kerim Alajbegović Modena Active 129 / 140 40% 1 03.12.2027 -
Sheldon Dinesh Tranmere Rovers Active 99 / 117 40% 1 02.12.2027 -
Leo Rimac Koper Active 97 / 109 40% 1 02.12.2027 -
Dilan Godoy Vélez Active 115 / 117 40% 1 01.12.2027 -
Adama Goïta Remo Stars Active 103 / 97 40% 3 30.11.2027 -
Mamadou Doumbia FC Lorient Active 134 / 122 40% 2 29.11.2027 -
Caleb Yirenkyi Coventry City Active 129 / 157 40% 2 28.11.2027 -
Musa Malik Ikorodu City Active 78 / 96 40% 1 28.11.2027 -
Tiziano Cabrera Central Norte Active 79 / 96 40% 1 27.11.2027 -
Juan Rodríguez Wanderers Active 88 / 108 40% 1 25.11.2027 -
Gustavo Lozano Metropolitanos Active 91 / 97 40% 1 24.11.2027 -
Franco Minerva Platense Active 124 / 123 40% 1 24.11.2027 -
Nicolás Azambuja Cádiz Active 121 / 142 40% 1 24.11.2027 -
Iwan Morgan Grimsby Town Active 110 / 129 40% 5 22.11.2027 -
Facundo Martínez Montevideo City Torque Active 81 / 90 40% 1 19.11.2027 -
Julián Fabregas Jaguares Active 87 / 97 40% 1 17.11.2027 -
Matías Gómez Zira Active 98 / 99 40% 1 14.11.2027 -
Timofey Simanenka Gomel Active 110 / 97 40% 1 03.11.2027 -
Joel Ezra Enyimba Active 100 / 112 40% 2 15.10.2027 -
Bryan Caicedo Leones Active 96 / 106 40% 1 14.10.2027 -
Matías Canedo Rampla Juniors Active 89 / 94 40% 1 13.10.2027 -
Abdoul Ouattara Burton Albion Active 143 / 128 40% 1 13.10.2027 -
Sadiq Auwal Niger Tornadoes Active 102 / 104 40% 2 12.10.2027 -
Tobi Ige Bendel Insurance Active 70 / 81 40% 1 12.10.2027 -
Cristian Florez Cortulua Active 98 / 109 40% 2 11.10.2027 -
Mustapha Umar Kano Pillars Active 76 / 82 40% 1 11.10.2027 -
Diogo Guzmán Montevideo City Torque Active 108 / 115 40% 3 09.10.2027 -
Lucas Duré Montevideo City Torque Active 108 / 99 40% 1 09.10.2027 -
Hervin Goyes Deportivo Pasto Active 109 / 104 40% 1 08.10.2027 -
Mateo Peralta Danubio Active 117 / 123 40% 1 07.10.2027 -
Santino Carrizo Chacarita Juniors Active 93 / 99 40% 1 07.10.2027 -
Alex Amaefula Kun Khalifat Active 69 / 78 40% 2 04.10.2027 -
Chinedu Nwosu Bendel Insurance Active 81 / 84 40% 1 04.10.2027 -
Abdulrahman Hamisu Niger Tornadoes Active 104 / 97 40% 1 13.09.2027 -
Giovanni Baroni Talleres Active 100 / 121 40% 1 13.09.2027 -
Juan Diego Perdomo Depor Active 94 / 86 40% 1 12.09.2027 -
Luis Vidal Deportivo Pereira Active 87 / 97 40% 1 09.09.2027 -
Tiago Freitas Benfica Active 120 / 127 40% 1 09.08.2027 -
Kazunari Kita Real Sociedad Active 88 / 121 40% 1 26.07.2027 -
Daniel Vernattus Metalist Active 95 / 106 40% 1 26.07.2027 -
Toni Tamarit Alverca Active 132 / 128 40% 1 23.07.2027 -
Razvan Mitrita San Diego Football Club Negotiating 118 / 120 66% 1 22.07.2027 Approve
Shota Shekiladze Akhmat Grozny Active 110 / 110 66% 1 22.07.2027 Approve
Aljoša Matko Viborg Negotiating 117 / 117 66% 1 22.07.2027 Approve
Lorent Tolaj Plymouth Argyle Active 133 / 123 40% 2 21.07.2027 -
Mees Rijks Bristol Rovers Active 110 / 126 40% 2 21.07.2027 -
Yousef Salech Cardiff City Active 128 / 122 40% 10 19.07.2027 -
Oli McBurnie Hull City Active 136 / 140 40% 8 16.07.2027 -
Harry Leonard Peterborough United Active 108 / 115 40% 3 16.07.2027 -
Callum O'Hare Sheffield United Active 148 / 144 40% 3 13.07.2027 -
Hwang Hee-Chan Wolverhampton Active 129 / 131 40% 2 11.07.2027 -
Lee Bonis Chesterfield Active 104 / 109 40% 1 10.07.2027 -
Zian Flemming Ipswich Town Active 140 / 136 40% 3 09.07.2027 -
Kyle Wootton Stockport County Active 116 / 117 40% 3 08.07.2027 -
Ronan Hale Gillingham Active 117 / 124 40% 3 08.07.2027 -
Sam Bell Bristol City Active 120 / 129 40% 2 07.07.2027 -
Callum Lang Preston Active 137 / 106 40% 2 06.07.2027 Needs More Info
Sam Nombe Milton Keynes Dons Active 130 / 103 40% 4 05.07.2027 Monitor
Davis Keillor-Dunn Wrexham Active 129 / 112 40% 1 05.07.2027 Needs More Info
Alassana Jatta Notts County Active 105 / 96 40% 2 04.07.2027 -
Josh Windass Wrexham Active 111 / 115 40% 2 01.07.2027 -
Tyreece Campbell Charlton Athletic Active 116 / 132 40% 2 29.06.2027 -
Tyrese Campbell Sheffield United Active 146 / 129 40% 4 28.06.2027 -
Petar Musa Adana Demirspor Active 154 / 150 40% 1 28.06.2027 -
Kelly Saravanan Salford City Active 97 / 119 40% 1 25.06.2027 -
Marcus Browne AFC Wimbledon Active 117 / 113 40% 4 24.06.2027 -
Niall Ennis Blackpool Active 121 / 117 40% 3 24.06.2027 -
Ilyas Ansah Hull City Active 148 / 137 40% 3 21.06.2027 -
Aune Heggebø West Bromwich Albion Active 138 / 116 40% 4 15.06.2027 -
Bojan Radulović Huddersfield Town Active 101 / 110 40% 2 13.06.2027 -
Stephen Humphrys Bradford City Active 95 / 118 40% 3 09.06.2027 -
Mathias Jørgensen Blackburn Rovers Active 117 / 119 40% 1 07.06.2027 -
Josh Koroma Leyton Orient Active 116 / 97 40% 2 04.06.2027 -
Daniel Udoh Salford City Active 96 / 91 40% 1 03.06.2027 -
Morgan Whittaker Middlesbrough Active 144 / 118 40% 8 01.06.2027 -
Dom Ballard Leyton Orient Active 105 / 129 40% 5 28.05.2027 -
Robert Mizo Ashanti Gold Active 87 / 109 40% 1 24.05.2027 -
Harry Cornick AFC Wimbledon Active 96 / 109 40% 1 21.05.2027 -
Tom Cannon Sheffield United Active 117 / 120 40% 1 20.05.2027 -
Hany Mukhtar Spezia Active 124 / 144 40% 3 17.05.2027 -
Elijah Adebayo Luton Town Active 139 / 117 40% 5 14.05.2027 -
Luis Vázquez Birmingham Active 135 / 117 40% 4 06.05.2027 -
Aaron Collins Milton Keynes Dons Active 135 / 123 40% 2 01.05.2027 -
Jordan Ayew Leicester City Active 109 / 135 40% 2 30.04.2027 -
Joe Gelhardt Hull City Active 116 / 140 40% 2 28.04.2027 -
Tommy Conway Middlesbrough Active 134 / 124 40% 2 26.04.2027 -
Guilherme Ankaragucu Active 122 / 138 40% 2 21.04.2027 -
Bradley Fink Wycombe Wanderers Active 93 / 98 40% 1 21.04.2027 -
Aaron Drinan Swindon Town Active 91 / 112 40% 1 18.04.2027 -
Malik Mothersille Stockport County Active 119 / 103 40% 1 15.04.2027 -
Will Lankshear Middlesbrough Active 134 / 133 40% 4 12.04.2027 -
Christian Saydee Wigan Athletic Active 125 / 104 40% 1 05.04.2027 -
Romelu Castagne KV Oostende Active 130 / 133 40% 2 29.03.2027 -
Jayden Wareham Barnet Active 92 / 102 40% 1 29.03.2027 -
Cameron Archer Southampton Active 129 / 125 40% 1 23.03.2027 -
Adnan Courtois KV Oostende Active 146 / 145 40% 1 23.03.2027 -
Jens Odgaard Bologna Active 144 / 150 40% 1 20.03.2027 -
Gabriel Bravo Hearts of Oak Active 105 / 101 40% 2 16.03.2027 -
Isaac Essien WAFA Active 89 / 84 40% 1 14.03.2027 -
Emmanuel Boateng Hapoel Tel Aviv Active 105 / 124 40% 1 13.03.2027 -
Bismark Asante Ashanti Gold Active 78 / 87 40% 1 11.03.2027 -
Moussa Dembélé CR Belouizdad Active 118 / 134 40% 2 08.03.2027 -
Bertrand Traoré Sunderland Active 137 / 126 40% 1 23.02.2027 -
Juan Bezerra BK Hacken Lost 117 / 121 66% 1 22.02.2027 Approve
Florentino Luís Ipswich Town Active 124 / 141 40% 2 26.01.2027 -
David Ozoh Derby County Active 105 / 138 40% 1 07.01.2027 -
Ivan Sergeev Dinamo Moscow Active 136 / 109 40% 1 04.01.2027 Needs More Info
Max Bird Birmingham Active 143 / 116 40% 3 03.01.2027 Monitor
Tom Fellows Southampton Active 139 / 139 40% 3 02.01.2027 -
Ruben van Bommel Ferencvaros Active 150 / 128 40% 1 02.01.2027 -
Ethan Galbraith Swansea City Active 123 / 143 40% 2 26.12.2026 -
Tomáš Rigo Stoke City Active 146 / 136 40% 3 22.12.2026 -
Scott Twine Bristol City Active 119 / 128 40% 2 21.12.2026 -
Derensili Sanches Fernandes Huddersfield Town Active 140 / 122 40% 1 21.12.2026 Needs More Info
Habib Diarra Sunderland Active 133 / 149 40% 1 19.12.2026 -
Brian De Keersmaecker Oxford United Active 125 / 117 40% 1 17.12.2026 -
Lukáš Červ Viktoria Plzen Active 143 / 141 40% 2 15.12.2026 -
Ethan Williams Peterborough United Active 98 / 128 40% 1 15.12.2026 -
Kwame Poku Queens Park Rangers Active 118 / 113 40% 1 11.12.2026 -
Milan van Ewijk Mansfield Town Active 132 / 118 40% 1 10.12.2026 Needs More Info
Jack McGlynn Stoke City Active 117 / 138 40% 1 08.12.2026 -
Romano Schmid Frosinone Active 129 / 129 40% 1 07.12.2026 -
Jack Rudoni Coventry City Active 123 / 123 40% 1 06.12.2026 -
Koki Saito Queens Park Rangers Active 109 / 120 40% 1 05.12.2026 -
Million Manhoef Stoke City Active 131 / 119 40% 1 03.12.2026 -
Erison Kawasaki Frontale Active 136 / 131 40% 1 01.12.2026 -
Ollie Tanner Cardiff City Active 100 / 114 40% 1 30.11.2026 -
Mayckel Lahdo Malmo FF Active 131 / 117 40% 1 30.11.2026 -
Stanley Mills Oxford United Active 111 / 137 40% 1 28.11.2026 -
Derry Murkin Derby County Active 123 / 134 40% 1 27.11.2026 -
Isaiah Jones Luton Town Active 139 / 112 40% 1 26.11.2026 -
Kasey McAteer Ipswich Town Active 144 / 117 40% 1 25.11.2026 -
Sergio Lozano Jagiellonia Active 137 / 124 40% 1 23.11.2026 -
Zeidane Inoussa Swansea City Active 121 / 117 40% 1 23.11.2026 -
Finn Azaz Southampton Active 126 / 113 40% 1 22.11.2026 -
Lucas Agazzi Defensor Sporting Active 113 / 126 40% 1 22.11.2026 -
Sota Kitano Luzern Active 119 / 110 40% 2 19.11.2026 -
Suleiman Camara Slovan Bratislava Active 106 / 132 40% 1 19.11.2026 -
Christian Krasnodar Active 148 / 140 40% 2 16.11.2026 -
Tobias Gulliksen Rapid Wien Active 121 / 109 40% 2 16.11.2026 -
Reda Khadra Qarabag Active 118 / 131 40% 2 15.11.2026 -
Jack Currie Oxford United Active 119 / 115 40% 1 13.11.2026 -
Žiga Repas NK Maribor Active 131 / 121 40% 1 12.11.2026 -
Andrei Cordea CFR Cluj Active 137 / 127 40% 2 11.11.2026 -
Reon Yamahara Kawasaki Frontale Active 131 / 123 40% 1 10.11.2026 -
César Ibáñez Huracán Active 131 / 124 40% 1 02.11.2026 -
Hirokazu Ishihara FC Tokyo Active 117 / 137 40% 1 17.10.2026 -
Caolan Boyd-Munce Wycombe Wanderers Active 131 / 125 40% 1 17.10.2026 -
Shuto Nakano Sanfrecce Hiroshima Active 121 / 129 40% 1 12.10.2026 -
Koki Kumasaka Vegalta Sendai Active 110 / 124 40% 1 10.10.2026 -
Yuber Quiñónes Deportivo Pereira Active 120 / 117 40% 1 07.10.2026 -
Shunki Higashi Sanfrecce Hiroshima Active 109 / 114 40% 1 06.10.2026 -
Arjan Malić Sturm Graz Active 127 / 129 40% 1 11.09.2026 -
Ignacio Ovando Rosario Central Active 110 / 121 40% 1 08.09.2026 -
Felipe Obradovich Ferro Carril Oeste Active 100 / 123 40% 1 07.09.2026 -
George Onaiwu Yokohama F. Marinos Active 102 / 103 55% 1 17.08.2026 -
Ryo Germain Sanfrecce Hiroshima Active 121 / 137 40% 1 02.08.2026 -
Gabriel Jesus Barcelona Active 171 / 144 40% 1 01.08.2026 -